createdAt,value
2023-01-06T00:04:10.391Z,0.99
2023-01-06T00:09:14.314Z,0.94
2023-01-06T00:14:18.036Z,0.93
2023-01-06T00:19:21.754Z,0.94
2023-01-06T00:24:25.271Z,0.93
2023-01-06T00:29:28.891Z,0.91
2023-01-06T00:34:32.608Z,0.77
2023-01-06T00:39:36.126Z,0.70
2023-01-06T00:44:40.709Z,0.63
2023-01-06T00:49:44.179Z,0.61
2023-01-06T00:54:47.802Z,0.60
2023-01-06T00:59:51.415Z,0.64
2023-01-06T01:04:54.932Z,0.66
2023-01-06T01:09:58.347Z,0.64
2023-01-06T01:15:02.062Z,0.63
2023-01-06T01:20:06.104Z,0.64
2023-01-06T01:25:10.221Z,0.64
2023-01-06T01:30:13.947Z,0.64
2023-01-06T01:35:17.874Z,0.70
2023-01-06T01:40:21.381Z,0.74
2023-01-06T01:45:29.987Z,0.73
2023-01-06T01:50:51.258Z,0.72
2023-01-06T01:55:57.986Z,0.76
2023-01-06T02:01:02.280Z,0.77
2023-01-06T02:06:06.516Z,0.79
2023-01-06T02:11:11.052Z,0.76
2023-01-06T02:16:28.795Z,0.74
2023-01-06T02:21:53.302Z,0.75
2023-01-06T02:27:15.249Z,0.77
2023-01-06T02:32:21.326Z,0.80
2023-01-06T02:37:59.145Z,0.79
2023-01-06T02:43:17.612Z,0.80
2023-01-06T02:48:29.013Z,0.78
2023-01-06T02:53:47.272Z,0.80
2023-01-06T02:59:00.828Z,0.76
2023-01-06T03:04:11.465Z,0.72
2023-01-06T03:09:19.736Z,0.72
2023-01-06T03:14:33.594Z,0.69
2023-01-06T03:19:37.212Z,0.63
2023-01-06T03:24:42.876Z,0.59
2023-01-06T03:29:46.902Z,0.50
2023-01-06T03:35:24.328Z,0.39
2023-01-06T03:40:45.852Z,0.29
2023-01-06T03:46:07.695Z,0.17
2023-01-06T03:51:36.100Z,0.10
2023-01-06T03:56:45.865Z,0.09
2023-01-06T04:01:50.474Z,0.09
2023-01-06T04:06:53.912Z,0.08
2023-01-06T04:12:16.574Z,0.08
2023-01-06T04:17:20.090Z,0.09
2023-01-06T04:22:23.811Z,0.13
2023-01-06T04:27:27.835Z,0.09
2023-01-06T04:32:31.354Z,0.04
2023-01-06T04:37:35.420Z,0.01
2023-01-06T04:42:57.550Z,-0.01
2023-01-06T04:48:01.569Z,-0.08
2023-01-06T04:53:07.448Z,-0.14
2023-01-06T04:58:10.845Z,-0.23
2023-01-06T05:03:14.361Z,-0.25
2023-01-06T05:08:17.876Z,-0.20
2023-01-06T05:13:21.499Z,-0.19
2023-01-06T05:18:25.334Z,-0.14
2023-01-06T05:23:29.040Z,-0.08
2023-01-06T05:28:33.275Z,-0.05
2023-01-06T05:33:36.887Z,-0.00
2023-01-06T05:38:40.839Z,-0.01
2023-01-06T05:43:44.434Z,-0.03
2023-01-06T05:48:47.955Z,-0.04
2023-01-06T05:53:51.563Z,-0.02
2023-01-06T05:58:56.415Z,-0.02
2023-01-06T06:04:00.790Z,-0.03
2023-01-06T06:09:05.386Z,-0.00
2023-01-06T06:14:11.182Z,0.02
2023-01-06T06:19:14.978Z,0.03
2023-01-06T06:24:18.392Z,0.07
2023-01-06T06:29:21.908Z,0.11
2023-01-06T06:34:25.628Z,0.10
2023-01-06T06:39:29.143Z,0.06
2023-01-06T06:44:32.664Z,0.06
2023-01-06T06:49:36.174Z,-0.00
2023-01-06T06:54:39.688Z,-0.12
2023-01-06T06:59:43.310Z,-0.26
2023-01-06T07:04:46.981Z,-0.25
2023-01-06T07:09:50.544Z,-0.32
2023-01-06T07:14:54.060Z,-0.40
2023-01-06T07:19:57.676Z,-0.43
2023-01-06T07:25:01.203Z,-0.39
2023-01-06T07:30:06.192Z,-0.29
2023-01-06T07:35:10.681Z,-0.24
2023-01-06T07:40:14.721Z,-0.18
2023-01-06T07:45:18.231Z,-0.11
2023-01-06T07:50:21.845Z,-0.13
2023-01-06T07:55:25.890Z,-0.06
2023-01-06T08:00:29.281Z,-0.04
2023-01-06T08:05:33.215Z,0.00
2023-01-06T08:10:40.946Z,0.09
2023-01-06T08:15:44.510Z,0.12
2023-01-06T08:20:48.054Z,0.11
2023-01-06T08:25:51.568Z,0.09
2023-01-06T08:30:56.108Z,0.26
2023-01-06T08:36:00.894Z,0.40
2023-01-06T08:41:52.278Z,0.48
2023-01-06T08:47:09.425Z,0.52
2023-01-06T08:52:13.053Z,0.62
2023-01-06T08:57:16.671Z,0.67
2023-01-06T09:02:20.195Z,0.75
2023-01-06T09:07:23.816Z,0.88
2023-01-06T09:12:27.512Z,0.95
2023-01-06T09:17:33.020Z,1.00
2023-01-06T09:22:37.722Z,1.10
2023-01-06T09:27:42.053Z,1.20
2023-01-06T09:32:46.804Z,1.31
2023-01-06T09:37:50.724Z,1.47
2023-01-06T09:43:03.289Z,1.59
2023-01-06T09:48:16.291Z,1.62
2023-01-06T09:53:50.935Z,1.70
2023-01-06T09:59:08.785Z,1.77
2023-01-06T10:04:28.086Z,1.84
2023-01-06T10:09:52.679Z,1.92
2023-01-06T10:14:56.093Z,2.02
2023-01-06T10:20:17.629Z,2.07
2023-01-06T10:25:22.875Z,2.18
2023-01-06T10:30:33.970Z,2.31
2023-01-06T10:35:40.161Z,2.39
2023-01-06T10:40:43.690Z,2.42
2023-01-06T10:45:48.532Z,2.39
2023-01-06T10:50:52.456Z,2.39
2023-01-06T10:56:01.038Z,2.44
2023-01-06T11:01:24.307Z,2.43
2023-01-06T11:06:29.514Z,2.50
2023-01-06T11:11:33.231Z,2.52
2023-01-06T11:16:37.566Z,2.55
2023-01-06T11:21:44.529Z,2.60
2023-01-06T11:26:57.714Z,2.56
2023-01-06T11:32:14.643Z,2.57
2023-01-06T11:37:42.961Z,2.54
2023-01-06T11:42:53.007Z,2.43
2023-01-06T11:47:57.862Z,2.46
2023-01-06T11:53:15.290Z,2.52
2023-01-06T11:58:25.767Z,2.47
2023-01-06T12:03:41.817Z,2.48
2023-01-06T12:09:01.267Z,2.46
2023-01-06T12:14:16.497Z,2.47
2023-01-06T12:19:33.491Z,2.52
2023-01-06T12:24:38.036Z,2.53
2023-01-06T12:29:41.955Z,2.46
2023-01-06T12:34:48.777Z,2.44
2023-01-06T12:40:03.424Z,2.40
2023-01-06T12:45:56.404Z,2.29
2023-01-06T12:51:19.920Z,2.32
2023-01-06T12:56:29.232Z,2.30
2023-01-06T13:01:50.444Z,2.31
2023-01-06T13:07:36.987Z,2.33
2023-01-06T13:13:23.911Z,2.40
2023-01-06T13:18:43.161Z,2.30
2023-01-06T13:23:57.272Z,2.27
2023-01-06T13:29:32.948Z,2.21
2023-01-06T13:34:51.825Z,2.13
2023-01-06T13:39:57.693Z,2.04
2023-01-06T13:45:02.734Z,1.94
2023-01-06T13:50:07.587Z,1.87
2023-01-06T13:55:25.258Z,1.79
2023-01-06T14:00:29.481Z,1.70
2023-01-06T14:05:33.385Z,1.67
2023-01-06T14:10:38.547Z,1.61
2023-01-06T14:15:55.694Z,1.56
2023-01-06T14:21:06.253Z,1.51
2023-01-06T14:26:11.112Z,1.49
2023-01-06T14:31:26.921Z,1.45
2023-01-06T14:36:33.638Z,1.41
2023-01-06T14:41:43.578Z,1.40
2023-01-06T14:46:54.277Z,1.34
2023-01-06T14:52:03.914Z,1.32
2023-01-06T14:57:24.970Z,1.29
2023-01-06T15:02:29.465Z,1.31
2023-01-06T15:07:32.991Z,1.29
2023-01-06T15:12:37.634Z,1.27
2023-01-06T15:17:41.456Z,1.27
2023-01-06T15:22:52.257Z,1.19
2023-01-06T15:27:57.527Z,1.15
2023-01-06T15:33:02.956Z,1.13
2023-01-06T15:38:51.628Z,1.06
2023-01-06T15:43:55.124Z,0.99
2023-01-06T15:48:58.659Z,0.93
2023-01-06T15:54:02.482Z,0.88
2023-01-06T15:59:11.937Z,0.79
2023-01-06T16:04:16.939Z,0.68
2023-01-06T16:09:20.518Z,0.57
2023-01-06T16:14:31.193Z,0.49
2023-01-06T16:19:37.163Z,0.43
2023-01-06T16:24:40.776Z,0.42
2023-01-06T16:29:44.401Z,0.37
2023-01-06T16:34:52.970Z,0.33
2023-01-06T16:39:59.855Z,0.30
2023-01-06T16:45:08.661Z,0.28
2023-01-06T16:50:15.560Z,0.24
2023-01-06T16:55:20.336Z,0.15
2023-01-06T17:00:24.130Z,0.06
2023-01-06T17:05:29.928Z,-0.04
2023-01-06T17:10:33.733Z,-0.10
2023-01-06T17:15:37.443Z,-0.15
2023-01-06T17:20:40.955Z,-0.18
2023-01-06T17:25:45.395Z,-0.18
2023-01-06T17:30:51.367Z,-0.11
2023-01-06T17:35:56.627Z,-0.14
2023-01-06T17:41:00.239Z,-0.16
2023-01-06T17:46:17.013Z,-0.15
2023-01-06T17:51:21.403Z,-0.13
2023-01-06T17:56:25.846Z,-0.15
2023-01-06T18:01:31.527Z,-0.17
2023-01-06T18:06:38.302Z,-0.21
2023-01-06T18:11:51.034Z,-0.22
2023-01-06T18:16:57.544Z,-0.21
2023-01-06T18:22:03.823Z,-0.18
2023-01-06T18:27:16.843Z,-0.12
2023-01-06T18:32:28.232Z,-0.09
2023-01-06T18:37:34.312Z,-0.08
2023-01-06T18:42:41.955Z,-0.08
2023-01-06T18:48:02.128Z,-0.08
2023-01-06T18:53:14.859Z,-0.10
2023-01-06T18:58:27.795Z,-0.11
2023-01-06T19:03:39.501Z,-0.11
2023-01-06T19:08:46.195Z,-0.12
2023-01-06T19:13:50.731Z,-0.11
2023-01-06T19:18:56.408Z,-0.12
2023-01-06T19:24:01.974Z,-0.09
2023-01-06T19:29:12.517Z,-0.07
2023-01-06T19:34:16.472Z,-0.03
2023-01-06T19:39:38.008Z,0.01
2023-01-06T19:44:42.447Z,0.02
2023-01-06T19:49:50.065Z,0.01
2023-01-06T19:54:55.310Z,0.04
2023-01-06T20:00:01.890Z,0.08
2023-01-06T20:05:05.725Z,0.16
2023-01-06T20:10:09.747Z,0.20
2023-01-06T20:15:13.674Z,0.22
2023-01-06T20:20:17.619Z,0.28
2023-01-06T20:25:22.482Z,0.32
2023-01-06T20:30:26.995Z,0.36
2023-01-06T20:35:30.605Z,0.42
2023-01-06T20:40:34.545Z,0.44
2023-01-06T20:45:38.245Z,0.43
2023-01-06T20:50:42.992Z,0.45
2023-01-06T20:55:46.609Z,0.50
2023-01-06T21:00:50.222Z,0.51
2023-01-06T21:05:54.270Z,0.51
2023-01-06T21:10:57.877Z,0.55
2023-01-06T21:16:01.396Z,0.59
2023-01-06T21:21:07.972Z,0.65
2023-01-06T21:26:11.492Z,0.66
2023-01-06T21:31:15.156Z,0.68
2023-01-06T21:36:18.830Z,0.67
2023-01-06T21:41:41.148Z,0.71
2023-01-06T21:46:44.710Z,0.76
2023-01-06T21:51:49.813Z,0.77
2023-01-06T21:56:53.474Z,0.82
2023-01-06T22:01:57.221Z,0.82
2023-01-06T22:07:04.033Z,0.83
2023-01-06T22:12:09.490Z,0.87
2023-01-06T22:17:13.579Z,0.92
2023-01-06T22:22:18.334Z,0.97
2023-01-06T22:27:23.594Z,0.99
2023-01-06T22:32:28.631Z,1.01
2023-01-06T22:37:33.557Z,1.05
2023-01-06T22:42:37.096Z,1.08
2023-01-06T22:47:40.630Z,1.14
2023-01-06T22:52:44.132Z,1.19
2023-01-06T22:57:47.744Z,1.25
2023-01-06T23:02:51.411Z,1.31
2023-01-06T23:07:55.182Z,1.30
2023-01-06T23:12:58.703Z,1.33
2023-01-06T23:18:02.127Z,1.35
2023-01-06T23:23:05.737Z,1.39
2023-01-06T23:28:09.247Z,1.45
2023-01-06T23:33:12.760Z,1.55
2023-01-06T23:38:16.277Z,1.57
2023-01-06T23:43:19.906Z,1.68
2023-01-06T23:48:23.416Z,1.72
2023-01-06T23:53:28.479Z,1.70
2023-01-06T23:58:34.160Z,1.70
